Portada
METAR-TAF:

METAR-TAF

Aeropuertos :

El Salvador, El Salvador

Aeropuerto Internacional de El Salvador

latitud: 13-26N, longitud: 089-03W, altitud: 25 m

Observación

El informe se hizo hace 1 hora y 12 minutos, a las 16:50 UTC
Viento 10 kt del norte-noreste
Temperatura 34°C
Humedad 25%
Presión 1014 hPa
Visibilidad 10 km o más
sin nubes por debajo de 1500 m y sin presencia de cumulonimbus.

METAR: MSLP 241650Z 03010KT CAVOK 34/11 Q1014 A2995 NOSIG

Hora: 12:02 (18:02 UTC)

Pronóstico

El informe se hizo hace 2 horas y 37 minutos, a las 15:25 UTC
Pronóstico válido del 24 a las 18 UTC al 25 a las 18 UTC
Viento 10 kt del suroeste
Visibilidad 10 km o más
sin nubes por debajo de 1500 m y sin presencia de cumulonimbus.
A partir de las 25 a las 0000 UTC
Viento 8 kt del norte-noroeste
A partir de las 25 a las 0600 UTC
Viento 8 kt del noreste

TAF: MSLP 241525Z 2418/2518 22010KT CAVOK TX36/2418Z TN20/2510Z FM250000 33008KT FM250600 04008KT

Observaciones y pronósticos meteorológicos de más de 4000 aeropuertos (mensajes METAR y TAF).

Los puntos amarillos y rojos representan las estaciones disponibles.

Ponga el ratón en el punto deseado para ver el nombre de la estación.

Haga clic para ver las observaciones y los pronósticos meteorológicos.

Para cambiar el mapa : haga clic en los botones verdes con una cruz de color negro para hacer un zoom, en el botón verde con un guión para alejar o en las flechas verdes para mapas adyacentes.


METAR-TAF: